Time;durP1;ratioP1;P1;durP2;ratioP2;P2;SDS_P1;SDS_P2;PMS_P1;PMS_P2;Temp;Humidity;BMP_temperature;BMP_pressure;BME280_temperature;BME280_humidity;BME280_pressure;Samples;Min_cycle;Max_cycle;Signal;HPM_P1;HPM_P2
2022/04/27 00:04:50;;;;;;;1.88;1.77;;;;;;;19.66;40.76;96921.41;10317180;28;20054;-51
2022/04/27 00:10:10;;;;;;;2.72;1.73;;;;;;;19.64;40.81;96923.63;10310187;28;20481;-50
2022/04/27 00:15:29;;;;;;;2.42;1.75;;;;;;;19.62;40.67;96926.69;10330219;28;20059;-50
2022/04/27 00:20:49;;;;;;;1.83;1.70;;;;;;;19.62;40.80;96926.69;10316752;28;20459;-51
2022/04/27 00:26:09;;;;;;;2.10;1.90;;;;;;;19.61;40.74;96925.09;10326755;28;20082;-51
2022/04/27 00:31:31;;;;;;;2.30;2.10;;;;;;;19.61;40.81;96922.38;10329211;28;20516;-51
2022/04/27 00:36:51;;;;;;;2.13;1.77;;;;;;;19.60;40.64;96928.09;10328503;28;20058;-50
2022/04/27 00:42:15;;;;;;;2.10;1.90;;;;;;;19.59;40.77;96924.63;10333629;28;20051;-48
2022/04/27 00:47:34;;;;;;;1.80;1.70;;;;;;;19.56;40.70;96923.34;10333789;28;20047;-50
2022/04/27 00:52:54;;;;;;;2.08;1.90;;;;;;;19.58;40.67;96930.34;10330582;28;20620;-50
2022/04/27 00:58:14;;;;;;;2.22;2.03;;;;;;;19.55;40.77;96937.19;10312923;28;20061;-51
2022/04/27 01:03:37;;;;;;;2.15;2.03;;;;;;;19.55;40.65;96948.00;10320131;28;20516;-50
2022/04/27 01:08:56;;;;;;;2.13;2.00;;;;;;;19.53;40.57;96950.22;10313607;28;20053;-50
2022/04/27 01:14:16;;;;;;;2.00;1.90;;;;;;;19.52;40.61;96954.84;10301248;28;20132;-49
2022/04/27 01:19:36;;;;;;;2.10;1.90;;;;;;;19.51;40.76;96953.25;10322541;28;20073;-48
2022/04/27 01:24:57;;;;;;;2.10;1.90;;;;;;;19.52;40.56;96954.03;10330146;28;20498;-51
2022/04/27 01:30:16;;;;;;;2.15;1.95;;;;;;;19.50;40.62;96959.78;10328578;28;20062;-51
2022/04/27 01:35:36;;;;;;;2.35;2.15;;;;;;;19.49;40.75;96968.19;10305773;28;20050;-51
2022/04/27 01:40:56;;;;;;;1.90;1.80;;;;;;;19.48;40.65;96964.69;10339161;28;20042;-51
2022/04/27 01:46:15;;;;;;;2.03;1.90;;;;;;;19.47;40.75;96963.09;10319825;28;20509;-51
2022/04/27 01:57:12;;;;;;;2.38;2.13;;;;;;;19.46;40.64;96976.91;10321622;28;20043;-48
2022/04/27 02:02:33;;;;;;;2.10;1.90;;;;;;;19.44;40.55;96977.22;10322308;28;20101;-49
2022/04/27 02:07:54;;;;;;;2.08;1.88;;;;;;;19.45;40.54;96975.34;10293356;28;20054;-48
2022/04/27 02:13:13;;;;;;;2.03;1.92;;;;;;;19.43;40.52;96989.16;10322466;28;20088;-51
2022/04/27 02:18:33;;;;;;;2.00;1.80;;;;;;;19.42;40.59;96981.38;10307805;28;20537;-50
2022/04/27 02:23:53;;;;;;;1.90;1.80;;;;;;;19.41;40.69;96985.19;10310988;28;20816;-48
2022/04/27 02:29:15;;;;;;;2.00;1.90;;;;;;;19.40;40.65;96987.09;10313920;28;20054;-51
2022/04/27 02:34:35;;;;;;;2.20;2.00;;;;;;;19.39;40.63;96990.91;10310044;28;20049;-50
2022/04/27 02:39:55;;;;;;;2.05;1.95;;;;;;;19.38;40.66;96994.72;10323219;28;20143;-49
2022/04/27 02:45:15;;;;;;;2.30;2.15;;;;;;;19.38;40.62;97002.81;10302291;28;20059;-50
2022/04/27 02:56:13;;;;;;;2.40;2.10;;;;;;;19.35;40.65;97008.88;10318199;28;20845;-50
2022/04/27 03:01:32;;;;;;;2.33;2.13;;;;;;;19.35;40.64;97014.28;10315265;28;20512;-50
2022/04/27 03:06:52;;;;;;;2.25;2.05;;;;;;;19.34;40.51;97023.47;10299878;28;20054;-51
2022/04/27 03:12:12;;;;;;;2.30;2.10;;;;;;;19.33;40.59;97021.91;10304056;28;20046;-48
2022/04/27 03:17:34;;;;;;;2.30;2.10;;;;;;;19.34;40.52;97028.88;10311929;28;20054;-51
2022/04/27 03:22:55;;;;;;;2.80;1.95;;;;;;;19.31;40.60;97027.63;10314345;28;20046;-51
2022/04/27 03:28:15;;;;;;;2.40;2.20;;;;;;;19.32;40.40;97036.50;10345386;28;20486;-51
2022/04/27 03:33:35;;;;;;;2.10;1.85;;;;;;;19.31;40.53;97040.34;10311867;28;20038;-51
2022/04/27 03:38:55;;;;;;;2.42;2.22;;;;;;;19.29;40.55;97037.94;10321573;28;20059;-50
2022/04/27 03:44:15;;;;;;;2.13;1.95;;;;;;;19.28;40.50;97032.84;10336447;28;20422;-50
2022/04/27 03:49:36;;;;;;;1.95;1.85;;;;;;;19.29;40.56;97047.97;10311145;28;20058;-51
2022/04/27 03:55:00;;;;;;;2.25;2.05;;;;;;;19.27;40.43;97050.97;10305149;28;20054;-48
2022/04/27 04:00:20;;;;;;;2.10;2.00;;;;;;;19.27;40.42;97058.28;10313480;28;20390;-51
2022/04/27 04:05:43;;;;;;;2.10;1.83;;;;;;;19.24;40.50;97067.81;10315083;28;20046;-51
2022/04/27 04:11:03;;;;;;;2.20;2.00;;;;;;;19.24;40.36;97073.19;10311195;28;20057;-50
2022/04/27 04:16:40;;;;;;;2.25;2.05;;;;;;;19.25;40.44;97082.09;10331127;28;20564;-51
2022/04/27 04:22:08;;;;;;;2.30;2.10;;;;;;;19.25;40.27;97092.91;10337235;28;20051;-51
2022/04/27 04:33:16;;;;;;;2.15;1.95;;;;;;;19.29;40.76;97093.88;10332637;28;20650;-51
2022/04/27 04:38:42;;;;;;;3.05;2.15;;;;;;;19.30;40.77;97106.28;10324041;28;20049;-48
2022/04/27 04:44:03;;;;;;;2.10;1.90;;;;;;;19.32;40.85;97107.53;10332248;28;20034;-48
2022/04/27 04:49:32;;;;;;;2.38;2.00;;;;;;;19.36;41.08;97118.50;10342936;28;20042;-50
2022/04/27 04:55:12;;;;;;;2.13;1.92;;;;;;;19.39;41.23;97125.22;10311576;28;20046;-48
2022/04/27 05:01:04;;;;;;;3.05;1.92;;;;;;;19.43;41.61;97139.69;10299046;28;20605;-48
2022/04/27 05:06:44;;;;;;;2.05;1.92;;;;;;;19.45;41.82;97151.75;10316430;28;20046;-51
2022/04/27 05:12:36;;;;;;;4.60;2.10;;;;;;;19.49;41.86;97155.41;10308618;28;20058;-48
2022/04/27 05:17:58;;;;;;;2.00;1.90;;;;;;;19.53;41.83;97167.19;10326485;28;20081;-49
2022/04/27 05:23:37;;;;;;;5.07;4.57;;;;;;;19.45;38.54;97173.38;10325144;28;20486;-50
2022/04/27 05:35:13;;;;;;;7.57;6.72;;;;;;;18.62;37.57;97182.06;10319398;28;20069;-48
2022/04/27 05:41:04;;;;;;;10.02;5.95;;;;;;;18.93;38.28;97178.56;10307245;28;20041;-48
2022/04/27 05:46:42;;;;;;;18.77;7.30;;;;;;;19.15;38.54;97188.50;10322253;28;20054;-51
2022/04/27 05:52:20;;;;;;;12.07;6.70;;;;;;;19.28;38.58;97192.22;10299247;28;20058;-51
2022/04/27 05:57:56;;;;;;;21.00;6.75;;;;;;;19.38;38.58;97200.03;10296389;28;20050;-48
2022/04/27 06:03:24;;;;;;;15.80;6.43;;;;;;;19.43;38.58;97204.53;10324527;28;20050;-48
2022/04/27 06:08:44;;;;;;;13.43;6.47;;;;;;;19.48;38.68;97207.88;10295529;28;20054;-49
2022/04/27 06:14:10;;;;;;;17.02;7.00;;;;;;;19.52;38.80;97214.25;10309562;28;20632;-51
2022/04/27 06:19:48;;;;;;;16.35;6.50;;;;;;;19.56;38.74;97225.19;10300087;28;20050;-51
2022/04/27 06:25:08;;;;;;;9.63;5.72;;;;;;;19.59;38.82;97221.09;10322995;28;20045;-48
2022/04/27 06:30:35;;;;;;;12.00;5.80;;;;;;;19.61;39.07;97237.78;10296893;28;20116;-49
2022/04/27 06:35:55;;;;;;;10.93;6.20;;;;;;;19.62;39.05;97240.19;10313865;28;20070;-49
2022/04/27 06:41:16;;;;;;;12.65;6.45;;;;;;;19.64;39.24;97248.78;10324025;28;20082;-51
2022/04/27 06:47:03;;;;;;;11.50;6.32;;;;;;;19.67;39.23;97255.47;10320305;28;20046;-48
2022/04/27 06:52:43;;;;;;;11.95;6.15;;;;;;;19.69;39.37;97258.66;10325657;28;20061;-49
2022/04/27 06:58:21;;;;;;;12.02;6.18;;;;;;;19.69;39.37;97250.53;10307437;28;20061;-50
2022/04/27 07:03:55;;;;;;;9.23;5.68;;;;;;;19.69;39.41;97255.94;10301245;28;20062;-51
2022/04/27 07:09:14;;;;;;;9.25;5.65;;;;;;;19.71;39.56;97264.53;10302803;28;20047;-51
2022/04/27 07:14:34;;;;;;;10.02;4.63;;;;;;;19.70;37.16;97273.75;10312218;28;20472;-50
2022/04/27 07:19:53;;;;;;;6.78;4.10;;;;;;;19.63;36.22;97279.59;10324963;28;20046;-48
2022/04/27 07:25:14;;;;;;;8.25;5.15;;;;;;;19.64;38.52;97275.00;10338933;28;20046;-50
2022/04/27 07:30:33;;;;;;;7.88;4.35;;;;;;;19.64;38.43;97280.41;10327779;28;20058;-51
2022/04/27 07:35:53;;;;;;;5.85;4.10;;;;;;;19.66;38.26;97289.81;10323175;28;20587;-49
2022/04/27 07:41:12;;;;;;;6.68;4.35;;;;;;;19.69;38.42;97296.47;10338502;28;20045;-51
2022/04/27 07:46:32;;;;;;;7.90;4.22;;;;;;;19.69;38.30;97294.56;10340120;28;20109;-50
2022/04/27 07:51:51;;;;;;;8.35;4.20;;;;;;;19.69;38.38;97299.97;10323771;28;20448;-50
2022/04/27 07:57:11;;;;;;;6.75;4.05;;;;;;;19.69;38.33;97299.97;10327951;28;20051;-51
2022/04/27 08:02:30;;;;;;;5.32;3.50;;;;;;;19.70;38.13;97309.69;10329382;28;20058;-51
2022/04/27 08:07:49;;;;;;;5.22;3.80;;;;;;;19.70;37.88;97306.19;10337427;28;20497;-51
2022/04/27 08:13:09;;;;;;;5.18;3.50;;;;;;;19.69;38.00;97323.50;10319520;28;20445;-52
2022/04/27 08:18:28;;;;;;;5.78;3.88;;;;;;;19.68;38.08;97330.84;10326810;28;20074;-52
2022/04/27 08:23:49;;;;;;;4.45;3.35;;;;;;;19.70;38.16;97333.22;10335863;28;20273;-52
2022/04/27 08:29:08;;;;;;;3.40;3.10;;;;;;;19.71;38.28;97335.63;10322691;28;20117;-50
2022/04/27 08:34:28;;;;;;;5.15;3.33;;;;;;;19.71;38.43;97332.09;10325361;28;20113;-50
2022/04/27 08:39:49;;;;;;;3.70;3.13;;;;;;;19.74;38.51;97324.22;10329390;28;20046;-53
2022/04/27 08:45:09;;;;;;;4.57;2.92;;;;;;;19.75;38.46;97322.28;10323315;28;20073;-51
2022/04/27 08:50:28;;;;;;;5.90;3.03;;;;;;;19.77;38.62;97332.81;10310554;28;20054;-52
2022/04/27 08:55:51;;;;;;;3.58;2.90;;;;;;;19.78;38.57;97335.19;10330986;28;20062;-52
2022/04/27 09:01:12;;;;;;;4.38;2.92;;;;;;;19.80;38.68;97338.38;10329796;28;20046;-52
2022/04/27 09:06:38;;;;;;;4.15;2.90;;;;;;;19.82;38.86;97341.56;10334527;28;20047;-52
2022/04/27 09:11:58;;;;;;;4.40;2.78;;;;;;;19.84;38.67;97336.66;10330366;28;20047;-51
2022/04/27 09:23:00;;;;;;;2.72;2.42;;;;;;;19.88;38.08;97337.63;10325356;28;20558;-51
2022/04/27 09:28:23;;;;;;;2.80;2.30;;;;;;;19.89;38.27;97341.09;10315394;28;20055;-52
2022/04/27 09:33:42;;;;;;;2.78;2.42;;;;;;;19.91;37.93;97338.88;10329761;28;20050;-52
2022/04/27 09:39:06;;;;;;;2.72;2.33;;;;;;;19.93;37.86;97336.66;10324547;28;20046;-51
2022/04/27 09:44:33;;;;;;;4.25;2.40;;;;;;;19.97;37.83;97342.25;10321553;28;20401;-50
2022/04/27 09:49:54;;;;;;;4.82;3.03;;;;;;;19.99;37.76;97342.72;10329460;28;20050;-49
2022/04/27 09:55:13;;;;;;;5.70;3.15;;;;;;;20.03;37.62;97346.41;10333927;28;20537;-52
2022/04/27 10:00:35;;;;;;;6.85;3.38;;;;;;;20.05;37.78;97344.19;10325726;28;20696;-50
2022/04/27 10:05:55;;;;;;;4.93;2.90;;;;;;;20.07;37.58;97348.19;10323163;28;20058;-52
2022/04/27 10:11:15;;;;;;;6.30;3.42;;;;;;;20.10;37.59;97341.34;10329786;28;20097;-49
2022/04/27 10:16:35;;;;;;;5.78;3.78;;;;;;;20.12;37.52;97337.19;10289346;28;20054;-49
2022/04/27 10:21:57;;;;;;;6.65;3.28;;;;;;;20.17;37.64;97352.50;10325823;28;20060;-52
2022/04/27 10:27:35;;;;;;;7.00;3.90;;;;;;;20.21;37.67;97358.06;10322935;28;20050;-52
2022/04/27 10:32:54;;;;;;;7.88;4.10;;;;;;;20.23;38.38;97358.53;10325895;28;20058;-50
2022/04/27 10:38:24;;;;;;;5.72;3.33;;;;;;;20.24;38.25;97357.44;10336137;28;20114;-50
2022/04/27 10:43:43;;;;;;;5.88;3.15;;;;;;;20.26;38.10;97361.41;10324311;28;20109;-52
2022/04/27 10:49:22;;;;;;;5.10;3.08;;;;;;;20.27;38.06;97363.03;10338509;28;20112;-51
2022/04/27 10:54:42;;;;;;;5.28;3.10;;;;;;;20.28;37.94;97367.31;10326454;28;20050;-52
2022/04/27 11:00:07;;;;;;;4.53;2.90;;;;;;;20.29;37.79;97366.22;10340545;28;20045;-52
2022/04/27 11:05:27;;;;;;;4.72;2.72;;;;;;;20.27;37.48;97373.84;10312727;28;20670;-53
2022/04/27 11:10:47;;;;;;;6.78;3.72;;;;;;;20.27;36.13;97381.19;10318790;28;20086;-53
2022/04/27 11:16:07;;;;;;;4.85;2.78;;;;;;;20.25;34.90;97376.06;10319221;28;20096;-53
2022/04/27 11:21:29;;;;;;;3.63;2.33;;;;;;;20.24;35.24;97365.56;10319356;28;20086;-51
2022/04/27 11:26:48;;;;;;;4.75;2.80;;;;;;;20.23;35.70;97383.72;10317044;28;20047;-53
2022/04/27 11:32:08;;;;;;;4.88;2.72;;;;;;;20.22;36.27;97375.91;10323286;28;20058;-51
2022/04/27 11:37:30;;;;;;;2.92;2.15;;;;;;;20.22;36.22;97371.28;10315752;28;20121;-52
2022/04/27 11:42:49;;;;;;;2.20;1.95;;;;;;;20.21;36.13;97375.09;10317190;28;20504;-52
2022/04/27 11:48:09;;;;;;;3.88;2.35;;;;;;;20.21;34.91;97377.00;10319576;28;20070;-53
2022/04/27 11:53:28;;;;;;;2.90;2.10;;;;;;;20.22;35.50;97381.31;10320209;28;20053;-50
2022/04/27 11:58:49;;;;;;;4.28;2.20;;;;;;;20.22;34.98;97371.28;10343530;28;20061;-50
2022/04/27 12:04:11;;;;;;;2.28;2.08;;;;;;;20.21;33.85;97375.09;10333492;28;20081;-52
2022/04/27 12:09:31;;;;;;;2.72;2.10;;;;;;;20.21;32.54;97383.22;10326788;28;20112;-52
2022/04/27 12:14:50;;;;;;;1.88;1.70;;;;;;;20.20;33.03;97378.13;10312200;28;20051;-52
2022/04/27 12:20:22;;;;;;;1.70;1.60;;;;;;;20.18;33.24;97380.34;10333903;28;20440;-51
2022/04/27 12:25:44;;;;;;;2.13;1.92;;;;;;;20.18;33.48;97374.94;10320617;28;20107;-53
2022/04/27 12:31:05;;;;;;;1.77;1.48;;;;;;;20.13;33.59;97373.16;10330916;28;20062;-50
2022/04/27 12:42:10;;;;;;;3.03;1.80;;;;;;;20.10;31.01;97388.09;10312064;28;20058;-52
2022/04/27 12:47:45;;;;;;;4.05;2.05;;;;;;;20.08;30.24;97389.53;10350016;28;20054;-52
2022/04/27 12:53:09;;;;;;;2.35;1.90;;;;;;;20.06;29.98;97389.84;10328606;28;20461;-50
2022/04/27 12:58:29;;;;;;;3.72;2.10;;;;;;;20.03;30.30;97401.31;10328376;28;20038;-52
2022/04/27 13:03:48;;;;;;;2.85;2.10;;;;;;;20.02;30.47;97398.91;10333539;28;20068;-52
2022/04/27 13:14:46;;;;;;;3.03;2.03;;;;;;;19.95;29.83;97393.94;10331506;28;20124;-52
2022/04/27 13:20:09;;;;;;;2.92;1.85;;;;;;;19.93;30.03;97393.44;10343956;28;20038;-52
2022/04/27 13:25:28;;;;;;;2.33;1.75;;;;;;;19.92;30.49;97403.47;10325210;28;20058;-51
2022/04/27 13:30:48;;;;;;;2.33;2.10;;;;;;;19.95;30.64;97404.75;10326992;28;20121;-49
2022/04/27 13:36:07;;;;;;;3.25;2.03;;;;;;;19.94;30.47;97403.97;10328756;28;20057;-50
2022/04/27 13:41:27;;;;;;;2.00;1.83;;;;;;;19.93;30.42;97394.28;10338032;28;20053;-49
2022/04/27 13:46:47;;;;;;;2.00;1.80;;;;;;;19.95;30.12;97407.47;10365381;28;20037;-50
2022/04/27 13:52:07;;;;;;;2.53;2.10;;;;;;;19.94;30.03;97400.47;10346138;28;20073;-51
2022/04/27 13:57:27;;;;;;;2.53;1.90;;;;;;;19.94;30.35;97392.34;10361339;28;20034;-53
2022/04/27 14:02:46;;;;;;;2.65;1.92;;;;;;;19.94;29.83;97389.66;10331911;28;20485;-51
2022/04/27 14:08:06;;;;;;;2.92;2.22;;;;;;;19.94;29.81;97398.56;10325648;28;20050;-52
2022/04/27 14:13:26;;;;;;;2.88;2.25;;;;;;;19.95;29.63;97394.75;10323674;28;20746;-53
2022/04/27 14:18:46;;;;;;;3.35;1.75;;;;;;;19.97;30.18;97404.44;10338718;28;20049;-51
2022/04/27 14:24:09;;;;;;;2.95;1.98;;;;;;;19.98;29.48;97392.53;10337211;28;20379;-51
2022/04/27 14:29:29;;;;;;;3.65;2.22;;;;;;;20.01;29.94;97391.88;10322126;28;20057;-52
2022/04/27 14:34:48;;;;;;;1.70;1.60;;;;;;;20.00;30.78;97404.63;10314912;28;20046;-51
2022/04/27 14:40:08;;;;;;;2.22;1.80;;;;;;;20.01;31.96;97402.72;10322891;28;20104;-51
2022/04/27 14:45:28;;;;;;;3.30;1.95;;;;;;;20.03;32.28;97405.91;10335770;28;20085;-49
2022/04/27 14:50:48;;;;;;;2.70;1.90;;;;;;;20.06;32.48;97405.28;10339515;28;20058;-50
2022/04/27 14:56:07;;;;;;;1.75;1.55;;;;;;;20.09;32.77;97404.66;10338727;28;20050;-52
2022/04/27 15:01:26;;;;;;;2.00;1.70;;;;;;;20.10;32.88;97398.13;10325746;28;20541;-50
2022/04/27 15:06:46;;;;;;;1.92;1.67;;;;;;;20.14;33.14;97407.22;10325294;28;20042;-52
2022/04/27 15:12:06;;;;;;;2.00;1.65;;;;;;;20.16;33.34;97405.00;10317639;28;20066;-52
2022/04/27 15:17:25;;;;;;;2.20;1.98;;;;;;;20.19;33.37;97404.38;10314829;28;20062;-49
2022/04/27 15:22:45;;;;;;;1.83;1.50;;;;;;;20.22;33.59;97402.94;10324562;28;20062;-50
2022/04/27 15:28:05;;;;;;;1.77;1.67;;;;;;;20.21;32.90;97407.56;10342083;28;20050;-52
2022/04/27 15:33:24;;;;;;;1.95;1.45;;;;;;;20.21;33.95;97412.97;10330630;28;20069;-48
2022/04/27 15:38:44;;;;;;;1.75;1.65;;;;;;;20.24;33.90;97420.47;10341047;28;20066;-49
2022/04/27 15:44:04;;;;;;;2.58;2.38;;;;;;;20.26;31.13;97423.66;10340105;28;20046;-49
2022/04/27 15:49:23;;;;;;;3.75;2.53;;;;;;;20.23;29.86;97418.88;10346850;28;20038;-52
2022/04/27 15:54:43;;;;;;;3.42;2.70;;;;;;;20.19;29.64;97415.22;10337623;28;20506;-52
2022/04/27 16:00:05;;;;;;;2.70;2.17;;;;;;;20.19;30.63;97427.91;10326234;28;20046;-51
2022/04/27 16:05:24;;;;;;;2.70;1.60;;;;;;;20.19;31.63;97419.78;10331292;28;20057;-49
2022/04/27 16:10:45;;;;;;;1.60;1.50;;;;;;;20.20;31.86;97426.81;10329470;28;20061;-53
2022/04/27 16:16:04;;;;;;;2.65;1.80;;;;;;;20.21;32.06;97434.63;10330859;28;20046;-52
2022/04/27 16:27:02;;;;;;;3.53;1.80;;;;;;;20.24;32.47;97438.59;10328506;28;20046;-52
2022/04/27 16:32:21;;;;;;;1.73;1.63;;;;;;;20.26;32.38;97441.78;10331636;28;20062;-52
2022/04/27 16:37:41;;;;;;;2.42;1.80;;;;;;;20.24;32.28;97444.81;10330397;28;20472;-53
2022/04/27 16:43:02;;;;;;;1.60;1.50;;;;;;;20.26;32.73;97445.28;10330949;28;20725;-52
2022/04/27 16:48:21;;;;;;;1.60;1.50;;;;;;;20.27;32.73;97448.81;10329236;28;20046;-52
2022/04/27 16:53:41;;;;;;;2.58;1.70;;;;;;;20.28;32.83;97461.22;10329323;28;20050;-52
2022/04/27 16:59:01;;;;;;;1.70;1.60;;;;;;;20.28;32.79;97461.22;10330540;28;20054;-52
2022/04/27 17:04:21;;;;;;;1.83;1.70;;;;;;;20.28;32.92;97462.00;10328613;28;20050;-52
2022/04/27 17:09:40;;;;;;;1.88;1.67;;;;;;;20.30;33.22;97476.03;10326375;28;20050;-52
2022/04/27 17:15:00;;;;;;;1.70;1.60;;;;;;;20.32;33.27;97473.81;10325642;28;20572;-50
2022/04/27 17:20:19;;;;;;;3.15;1.90;;;;;;;20.34;33.33;97487.81;10331536;28;20462;-51
2022/04/27 17:31:18;;;;;;;2.33;2.08;;;;;;;20.38;33.18;97498.03;10321687;28;20065;-52
2022/04/27 17:36:38;;;;;;;2.30;2.00;;;;;;;20.38;33.16;97508.84;10327337;28;20043;-50
2022/04/27 17:42:34;;;;;;;1.80;1.70;;;;;;;20.39;33.31;97513.16;10327875;28;20521;-51
2022/04/27 17:47:37;;;;;;;2.05;1.85;;;;;;;20.39;33.38;97511.25;10327223;28;20042;-50
2022/04/27 17:52:56;;;;;;;2.70;2.03;;;;;;;20.42;33.51;97515.22;10324246;28;20058;-52
2022/04/27 17:58:16;;;;;;;32.00;16.20;;;;;;;20.42;33.96;97516.03;10324896;28;20050;-52
2022/04/27 18:03:39;;;;;;;64.85;34.63;;;;;;;20.44;35.94;97524.63;10322046;28;20061;-51
2022/04/27 18:08:58;;;;;;;51.45;23.23;;;;;;;20.44;36.25;97530.03;10335507;28;20413;-52
2022/04/27 18:14:17;;;;;;;30.88;14.30;;;;;;;20.47;36.07;97539.47;10311443;28;20101;-52
2022/04/27 18:19:38;;;;;;;25.17;12.80;;;;;;;20.50;36.07;97552.34;10325502;28;20054;-49
2022/04/27 18:24:58;;;;;;;19.75;10.65;;;;;;;20.51;36.15;97562.88;10317355;28;20133;-49
2022/04/27 18:30:21;;;;;;;21.60;10.13;;;;;;;20.52;36.57;97561.78;10317816;28;20054;-53
2022/04/27 18:35:41;;;;;;;9.50;5.45;;;;;;;20.50;34.47;97571.31;10318544;28;20482;-52
2022/04/27 18:41:01;;;;;;;4.55;3.38;;;;;;;-146.19;100.00;65364.44;10337202;28;20042;-53
2022/04/27 18:51:59;;;;;;;6.13;3.95;;;;;;;20.29;34.82;97581.88;10324311;28;20058;-49
2022/04/27 18:57:22;;;;;;;6.82;4.10;;;;;;;20.37;34.97;97583.03;10321873;28;20057;-51
2022/04/27 19:02:42;;;;;;;6.75;3.85;;;;;;;20.40;35.06;97587.81;10326719;28;20541;-52
2022/04/27 19:08:02;;;;;;;5.80;4.18;;;;;;;20.43;35.14;97600.75;10332303;28;20046;-52
2022/04/27 19:13:21;;;;;;;4.68;3.90;;;;;;;20.47;35.11;97604.41;10325460;28;20046;-52
2022/04/27 19:18:41;;;;;;;7.22;3.90;;;;;;;20.47;35.22;97604.41;10319470;28;20054;-51
2022/04/27 19:24:00;;;;;;;5.28;3.90;;;;;;;20.47;35.23;97605.22;10336498;28;20042;-51
2022/04/27 19:29:20;;;;;;;6.13;3.75;;;;;;;20.48;35.21;97601.41;10325183;28;20502;-52
2022/04/27 19:34:40;;;;;;;5.93;3.45;;;;;;;20.49;35.38;97604.91;10335899;28;20088;-51
2022/04/27 19:40:00;;;;;;;4.97;3.70;;;;;;;20.49;35.45;97608.41;10336342;28;20046;-51
2022/04/27 19:45:20;;;;;;;4.38;3.13;;;;;;;20.50;35.44;97603.78;10325101;28;20124;-53
2022/04/27 19:50:40;;;;;;;4.95;3.40;;;;;;;20.51;35.73;97602.69;10338680;28;20066;-52
2022/04/27 19:55:59;;;;;;;4.15;3.13;;;;;;;20.50;35.73;97603.78;10319052;28;20517;-51
2022/04/27 20:01:22;;;;;;;3.75;3.13;;;;;;;20.50;35.97;97606.50;10325565;28;20791;-51
2022/04/27 20:06:42;;;;;;;4.18;3.08;;;;;;;20.48;35.95;97603.28;10327886;28;20050;-52
2022/04/27 20:12:03;;;;;;;3.40;3.10;;;;;;;20.48;36.07;97612.25;10330711;28;20057;-51
2022/04/27 20:17:23;;;;;;;3.10;2.80;;;;;;;20.49;36.10;97613.81;10331321;28;20054;-52
2022/04/27 20:22:43;;;;;;;3.67;3.00;;;;;;;20.49;36.01;97615.72;10346893;28;20037;-50
2022/04/27 20:28:14;;;;;;;2.97;2.67;;;;;;;20.49;36.27;97613.03;10332420;28;20034;-52
2022/04/27 20:33:34;;;;;;;3.72;2.90;;;;;;;20.47;36.25;97610.63;10330108;28;20046;-51
2022/04/27 20:38:55;;;;;;;3.40;2.60;;;;;;;20.48;36.33;97606.81;10341893;28;20038;-51
2022/04/27 20:44:15;;;;;;;2.97;2.47;;;;;;;20.47;36.35;97616.03;10332169;28;20050;-52
2022/04/27 20:49:35;;;;;;;3.47;2.60;;;;;;;20.47;36.35;97617.94;10329085;28;20054;-52
2022/04/27 20:54:54;;;;;;;2.72;2.40;;;;;;;20.45;36.43;97618.25;10329238;28;20595;-52
2022/04/27 21:00:14;;;;;;;2.92;2.63;;;;;;;20.44;36.44;97624.75;10324747;28;20065;-51
2022/04/27 21:05:35;;;;;;;4.68;2.95;;;;;;;20.45;36.54;97628.28;10333571;28;20042;-50
2022/04/27 21:10:55;;;;;;;2.65;2.30;;;;;;;20.44;36.48;97627.47;10328026;28;20061;-52
2022/04/27 21:16:15;;;;;;;2.58;2.38;;;;;;;20.44;36.79;97629.38;10325800;28;20058;-52
2022/04/27 21:21:36;;;;;;;5.18;2.47;;;;;;;20.44;36.73;97632.88;10324075;28;20054;-52
2022/04/27 21:26:57;;;;;;;2.47;2.28;;;;;;;20.44;37.03;97637.50;10327251;28;20411;-51
2022/04/27 21:32:18;;;;;;;2.78;2.50;;;;;;;20.44;37.08;97642.91;10330406;28;20054;-51
2022/04/27 21:37:37;;;;;;;3.47;2.60;;;;;;;20.43;37.03;97649.44;10326281;28;20050;-53
2022/04/27 21:42:57;;;;;;;2.83;2.50;;;;;;;20.43;37.07;97649.44;10325407;28;20073;-51
2022/04/27 21:48:16;;;;;;;2.80;2.53;;;;;;;20.42;37.23;97647.84;10325257;28;20051;-52
2022/04/27 21:53:35;;;;;;;2.42;2.17;;;;;;;20.42;37.37;97647.84;10339569;28;20050;-52
2022/04/27 21:58:59;;;;;;;3.10;2.60;;;;;;;20.40;37.53;97658.19;10324254;28;20548;-52
2022/04/27 22:04:19;;;;;;;2.60;2.17;;;;;;;20.40;37.52;97658.97;10323833;28;20487;-50
2022/04/27 22:09:41;;;;;;;3.15;2.40;;;;;;;20.40;37.66;97663.59;10329882;28;20042;-52
2022/04/27 22:15:00;;;;;;;2.38;2.17;;;;;;;20.38;37.69;97655.78;10325182;28;20113;-52
2022/04/27 22:20:19;;;;;;;2.45;2.25;;;;;;;20.39;37.77;97670.13;10327278;28;20057;-52
2022/04/27 22:25:39;;;;;;;2.25;2.05;;;;;;;20.38;37.94;97660.41;10323418;28;20531;-52
2022/04/27 22:31:00;;;;;;;2.40;2.20;;;;;;;20.38;37.96;97665.81;10324020;28;20054;-51
2022/04/27 22:36:21;;;;;;;2.42;2.22;;;;;;;20.37;38.07;97665.00;10326500;28;20140;-50
2022/04/27 22:41:40;;;;;;;2.20;2.00;;;;;;;20.38;38.07;97665.81;10341104;28;20481;-52
2022/04/27 22:47:00;;;;;;;2.20;2.00;;;;;;;20.35;38.18;97664.53;10328701;28;20498;-52
2022/04/27 22:52:22;;;;;;;2.03;1.92;;;;;;;20.34;38.18;97663.69;10326874;28;20438;-51
2022/04/27 22:57:42;;;;;;;2.05;1.92;;;;;;;20.33;38.07;97659.41;10320686;28;20560;-50
2022/04/27 23:03:01;;;;;;;2.15;1.95;;;;;;;20.32;38.08;97663.22;10333984;28;20050;-53
2022/04/27 23:14:00;;;;;;;4.78;2.22;;;;;;;20.28;37.77;97659.53;10307160;28;20429;-52
2022/04/27 23:19:20;;;;;;;2.55;2.25;;;;;;;20.26;37.92;97659.03;10340474;28;20046;-52
2022/04/27 23:24:41;;;;;;;2.42;2.05;;;;;;;20.25;37.79;97651.25;10320680;28;20055;-52
2022/04/27 23:30:01;;;;;;;2.10;1.90;;;;;;;20.23;37.82;97648.03;10315275;28;20078;-52
2022/04/27 23:35:20;;;;;;;2.25;2.00;;;;;;;20.23;37.68;97648.03;10318398;28;20398;-51
2022/04/27 23:40:40;;;;;;;2.33;2.05;;;;;;;20.21;37.72;97642.13;10343590;28;20057;-52
2022/04/27 23:46:00;;;;;;;1.88;1.77;;;;;;;20.19;37.67;97639.75;10321818;28;20409;-52
2022/04/27 23:51:20;;;;;;;2.47;2.08;;;;;;;20.18;37.68;97638.13;10329699;28;20054;-52
2022/04/27 23:56:39;;;;;;;2.45;2.17;;;;;;;20.17;37.61;97641.97;10326485;28;20058;-50
